Aérodrome :
LOGIN :

S'inscrire | Disclaimer

   EN    FR    IT 

 










Légende :    VFR   VFR Marginal   IFR   IFR Intensif   IFR Très Intensif
Visi : 
Plafond : 
>= 8 km
>= 3000ft
5 à 8 km
1000 à 3000 ft
1500m à 5 km
500 à 1000 ft
800 à 1500m
200 à 500 ft
< 800m
< 200 ft
Symboles :   Orages  Brouillard  Fortes neiges  Fortes précipitations  Vent > 20 kt
SIGMETs :   Divers  Orages  Givrage  Turbulence  Onde Orograph.  Cendres Volcan.







- Altitude de l'aérodrome : 2077 ft
- Code IATA : FMM


EDJA - Memmingen

DERNIER METAR :
  • 281520Z VRB02KT 9999 SCT043 SCT190 23/13 Q1000

METARs EXPIRÉS :
  • 281450Z VRB01KT CAVOK 23/12 Q1000
  • 281420Z VRB03KT CAVOK 23/12 Q1001
  • 281350Z 16004KT 110V210 CAVOK 23/14 Q1001
  • 281320Z 23006KT 190V260 9999 FEW041 23/13 Q1002
  • 281250Z 23005KT 200V260 9999 FEW045 BKN170 23/12 Q1002
  • 281220Z 27005KT 200V290 9999 FEW041 BKN160 23/13 Q1003

TAF TAF EDJA
Valide du 28 à 15h jusqu'au 29 à 00h UTC


281400Z 2815/2824 23007KT 9999 SCT045
TEMPO 2816/2823 27015G25KT 4000 TSRA SCT015 BKN030CB
TEMPO 2823/2824 2500 RA BKN007 OVC020
Pas de NOTAMs connus pour ce terrain.
2 SIGMETs publiés pour la FIR München (EDMM) :
 
Orages noyés dans la masse
EDMM SIGMET 5 VALID 281510/281710 EDZM
EDMM MUNCHEN FIR EMBD TS OBS S OF N48 TOP FL350 MOV N NC=
Orages noyés dans la masse avec grêle
EDMM SIGMET 4 VALID 281435/281600 EDZM
EDMM MUNCHEN FIR EMBD TSGR OBS N OF N5025 AND E OF E013 TOP FL400 MOV N NC=



MET'MAP, la Météo Aéronautique d'un coup d'oeil ! - Copyright ORBIFLY Décembre 2007 - Disclaimer

ORBIFLY MET'MAP TEAM :

Programmation & Développement : Alexandra Zaïnal
Conception & Développement : Baudouin d'Aumeries
Co-Programmation & Développement : Marc-Olivier Méhu
Soutien technique & logistique : Manuel Goepfert

Contact : metmap@orbifly.com




SOURCES & CREDITS :

   NOAA